Time;durP1;ratioP1;P1;durP2;ratioP2;P2;SDS_P1;SDS_P2;PMS_P1;PMS_P2;Temp;Humidity;BMP_temperature;BMP_pressure;BME280_temperature;BME280_humidity;BME280_pressure;Samples;Min_cycle;Max_cycle;Signal;HPM_P1;HPM_P2
2022/04/12 00:00:30;;;;;;;4.25;2.52;;;;;;;11.88;39.28;101299.62;1664844;85;21562;-65
2022/04/12 00:02:58;;;;;;;3.25;2.40;;;;;;;11.85;39.01;101302.75;1665199;84;21062;-64
2022/04/12 00:05:27;;;;;;;3.42;2.70;;;;;;;11.83;39.18;101303.22;1664369;85;21595;-63
2022/04/12 00:07:54;;;;;;;2.80;2.50;;;;;;;11.83;39.22;101300.61;1665258;85;21088;-64
2022/04/12 00:10:21;;;;;;;4.78;2.67;;;;;;;11.80;39.38;101296.30;1666660;85;21058;-64
2022/04/12 00:12:49;;;;;;;4.30;2.80;;;;;;;11.80;39.25;101311.08;1667891;85;21103;-65
2022/04/12 00:15:15;;;;;;;6.22;2.60;;;;;;;11.77;38.97;101313.73;1667092;85;21058;-65
2022/04/12 00:20:28;;;;;;;3.35;2.52;;;;;;;11.73;39.10;101295.12;1659141;85;21125;-64
2022/04/12 00:22:56;;;;;;;4.70;2.58;;;;;;;11.71;39.28;101302.97;1666687;85;21613;-64
2022/04/12 00:25:24;;;;;;;5.47;2.50;;;;;;;11.71;39.40;101299.06;1666728;85;21125;-62
2022/04/12 00:27:54;;;;;;;3.55;2.50;;;;;;;11.73;39.41;101319.88;1667631;85;21051;-61
2022/04/12 00:30:22;;;;;;;5.28;2.90;;;;;;;11.71;39.22;101304.71;1667790;84;21172;-63
2022/04/12 00:32:52;;;;;;;4.78;3.40;;;;;;;11.72;39.12;101309.05;1666657;85;21030;-64
2022/04/12 00:35:23;;;;;;;6.15;2.87;;;;;;;11.69;39.20;101307.36;1653033;85;21115;-64
2022/04/12 00:37:53;;;;;;;5.85;2.87;;;;;;;11.66;39.12;101303.52;1666397;85;21046;-63
2022/04/12 00:40:24;;;;;;;3.37;2.55;;;;;;;11.65;39.27;101313.48;1666883;85;21062;-64
2022/04/12 00:42:51;;;;;;;4.53;2.65;;;;;;;11.64;39.08;101316.12;1667829;85;21531;-64
2022/04/12 00:45:18;;;;;;;4.53;3.20;;;;;;;11.61;39.17;101313.11;1667685;85;21047;-65
2022/04/12 00:47:45;;;;;;;4.90;3.15;;;;;;;11.57;39.13;101323.17;1666171;85;21530;-64
2022/04/12 00:50:13;;;;;;;3.80;3.00;;;;;;;11.54;39.13;101326.28;1664704;85;21050;-63
2022/04/12 00:52:48;;;;;;;5.90;3.25;;;;;;;11.52;39.30;101329.36;1664976;85;21042;-63
2022/04/12 00:55:16;;;;;;;3.42;3.10;;;;;;;11.50;38.85;101326.75;1634741;86;21014;-63
2022/04/12 00:57:43;;;;;;;5.92;2.90;;;;;;;11.46;38.90;101329.86;1634634;86;21056;-64
2022/04/12 01:00:12;;;;;;;7.92;3.60;;;;;;;11.44;38.93;101333.38;1646519;86;21059;-63
2022/04/12 01:02:40;;;;;;;6.90;3.87;;;;;;;11.40;39.15;101323.45;1666468;85;21090;-64
2022/04/12 01:05:08;;;;;;;4.15;3.50;;;;;;;11.35;39.25;101325.25;1667835;85;21046;-63
2022/04/12 01:07:36;;;;;;;5.42;3.15;;;;;;;11.30;39.63;101329.70;1667374;85;21054;-63
2022/04/12 01:10:05;;;;;;;3.80;3.22;;;;;;;11.26;39.62;101317.60;1636014;85;21054;-63
2022/04/12 01:12:38;;;;;;;5.33;3.33;;;;;;;11.26;40.03;101320.64;1666487;85;21026;-63
2022/04/12 01:15:18;;;;;;;5.03;3.47;;;;;;;11.24;39.86;101316.77;1666631;85;21059;-63
2022/04/12 01:17:46;;;;;;;4.62;3.55;;;;;;;11.22;40.19;101314.63;1628198;87;21097;-65
2022/04/12 01:20:14;;;;;;;5.55;3.52;;;;;;;11.19;40.76;101323.78;1629371;87;21272;-64
2022/04/12 01:23:09;;;;;;;5.15;3.62;;;;;;;11.14;40.73;101320.40;1629170;87;21085;-63
2022/04/12 01:25:39;;;;;;;6.50;3.65;;;;;;;11.11;40.81;101310.01;1625706;87;21065;-64
2022/04/12 01:28:07;;;;;;;5.83;3.87;;;;;;;11.08;41.05;101311.37;1632540;87;21545;-63
2022/04/12 01:30:34;;;;;;;6.20;3.40;;;;;;;11.02;40.94;101306.27;1626725;87;21180;-64
2022/04/12 01:33:02;;;;;;;5.05;3.55;;;;;;;10.99;41.26;101320.61;1623221;87;21100;-64
2022/04/12 01:35:29;;;;;;;5.67;3.83;;;;;;;10.97;41.55;101311.09;1628456;87;21084;-64
2022/04/12 01:37:56;;;;;;;5.78;3.35;;;;;;;10.95;41.67;101304.61;1628864;87;21049;-64
2022/04/12 01:40:24;;;;;;;6.53;4.22;;;;;;;10.92;41.44;101291.63;1626180;87;21045;-64
2022/04/12 01:42:52;;;;;;;6.95;4.40;;;;;;;10.89;41.92;101312.52;1626434;87;21098;-64
2022/04/12 01:45:21;;;;;;;7.00;3.98;;;;;;;10.89;41.91;101311.22;1623393;87;21072;-64
2022/04/12 01:47:49;;;;;;;5.83;4.28;;;;;;;10.89;42.12;101310.34;1629328;87;21127;-64
2022/04/12 01:50:16;;;;;;;5.65;4.58;;;;;;;10.88;42.24;101313.84;1625924;87;21555;-63
2022/04/12 01:52:43;;;;;;;5.40;3.65;;;;;;;10.87;42.13;101312.98;1629370;87;21093;-64
2022/04/12 01:55:10;;;;;;;6.65;4.30;;;;;;;10.85;42.24;101312.14;1628308;87;21041;-64
2022/04/12 01:57:37;;;;;;;6.42;4.47;;;;;;;10.83;42.07;101310.00;1626776;87;21057;-64
2022/04/12 02:00:07;;;;;;;6.05;4.20;;;;;;;10.81;42.07;101309.16;1626909;87;21101;-63
2022/04/12 02:02:36;;;;;;;6.28;4.00;;;;;;;10.78;42.44;101299.25;1621573;87;21475;-64
2022/04/12 02:05:04;;;;;;;5.60;4.65;;;;;;;10.75;42.66;101313.16;1627060;87;21112;-64
2022/04/12 02:07:32;;;;;;;6.17;4.75;;;;;;;10.73;42.38;101307.11;1628465;87;21060;-63
2022/04/12 02:10:00;;;;;;;5.17;4.58;;;;;;;10.71;42.58;101316.68;1624764;87;21582;-64
2022/04/12 02:12:27;;;;;;;6.35;4.37;;;;;;;10.70;42.75;101308.87;1631927;87;21093;-64
2022/04/12 02:14:56;;;;;;;7.25;4.58;;;;;;;10.68;42.99;101318.01;1660304;85;21082;-64
2022/04/12 02:17:23;;;;;;;6.15;4.45;;;;;;;10.66;42.75;101326.28;1686858;85;21014;-65
2022/04/12 02:19:50;;;;;;;7.75;4.70;;;;;;;10.64;42.65;101321.53;1681613;85;21070;-63
2022/04/12 02:22:16;;;;;;;7.03;4.45;;;;;;;10.64;43.00;101320.23;1639599;86;21034;-63
2022/04/12 02:24:44;;;;;;;6.10;4.28;;;;;;;10.64;43.45;101320.23;1650656;86;21130;-64
2022/04/12 02:27:10;;;;;;;6.12;4.33;;;;;;;10.63;43.11;101323.27;1652679;86;21527;-63
2022/04/12 02:29:37;;;;;;;6.03;4.85;;;;;;;10.63;43.18;101317.23;1650037;86;21095;-64
2022/04/12 02:32:06;;;;;;;5.80;4.15;;;;;;;10.63;43.23;101328.94;1647155;85;21607;-63
2022/04/12 02:34:33;;;;;;;4.78;4.10;;;;;;;10.61;43.15;101334.60;1665151;85;21066;-64
2022/04/12 02:37:01;;;;;;;5.45;4.30;;;;;;;10.62;43.17;101337.61;1664677;85;21059;-64
2022/04/12 02:39:29;;;;;;;4.55;3.60;;;;;;;10.62;43.13;101337.61;1664768;85;21070;-64
2022/04/12 02:41:56;;;;;;;6.53;4.40;;;;;;;10.62;43.41;101346.72;1667833;85;21099;-63
2022/04/12 02:44:23;;;;;;;3.72;3.42;;;;;;;10.60;43.34;101349.78;1667176;85;21095;-64
2022/04/12 02:46:51;;;;;;;4.85;4.40;;;;;;;10.57;43.38;101340.27;1664980;85;21054;-63
2022/04/12 02:49:21;;;;;;;5.78;4.37;;;;;;;10.53;43.47;101349.45;1636617;86;21109;-63
2022/04/12 02:51:50;;;;;;;6.85;4.67;;;;;;;10.50;43.48;101348.17;1636670;87;21723;-64
2022/04/12 02:54:17;;;;;;;5.40;4.40;;;;;;;10.46;43.77;101342.58;1649409;86;21555;-63
2022/04/12 02:56:44;;;;;;;6.55;4.70;;;;;;;10.45;43.75;101344.75;1667955;85;21075;-63
2022/04/12 02:59:11;;;;;;;4.78;4.08;;;;;;;10.46;43.66;101347.79;1651702;87;21089;-63
2022/04/12 03:01:40;;;;;;;4.65;4.15;;;;;;;10.46;43.72;101349.09;1667870;85;21047;-64
2022/04/12 03:04:06;;;;;;;5.80;4.15;;;;;;;10.46;43.85;101351.26;1667565;85;21574;-64
2022/04/12 03:06:33;;;;;;;6.70;4.60;;;;;;;10.46;43.55;101355.16;1666249;85;21022;-65
2022/04/12 03:09:02;;;;;;;5.25;4.45;;;;;;;10.46;43.57;101356.47;1664704;85;21082;-63
2022/04/12 03:11:30;;;;;;;6.60;4.95;;;;;;;10.45;43.41;101362.53;1665004;84;21516;-63
2022/04/12 03:13:58;;;;;;;6.33;4.55;;;;;;;10.46;42.96;101367.30;1661277;85;21053;-64
2022/04/12 03:16:25;;;;;;;5.05;4.30;;;;;;;10.45;42.72;101362.96;1667467;85;21519;-64
2022/04/12 03:18:54;;;;;;;5.10;4.25;;;;;;;10.44;42.56;101367.33;1667687;85;21133;-64
2022/04/12 03:21:22;;;;;;;4.33;3.90;;;;;;;10.44;42.45;101370.36;1666780;85;21054;-63
2022/04/12 03:23:48;;;;;;;4.70;3.95;;;;;;;10.39;42.47;101379.95;1665247;85;21086;-63
2022/04/12 03:26:15;;;;;;;5.10;3.95;;;;;;;10.39;42.39;101378.64;1667001;85;21050;-63
2022/04/12 03:28:42;;;;;;;4.70;4.20;;;;;;;10.36;42.29;101382.59;1655650;85;21101;-63
2022/04/12 03:31:08;;;;;;;5.92;4.08;;;;;;;10.33;42.36;101382.61;1666191;85;21082;-64
2022/04/12 03:33:37;;;;;;;6.05;4.85;;;;;;;10.29;42.37;101382.23;1655357;86;21547;-63
2022/04/12 03:36:05;;;;;;;6.97;4.67;;;;;;;10.28;42.35;101383.13;1656943;86;21062;-65
2022/04/12 03:38:34;;;;;;;5.78;4.65;;;;;;;10.24;42.54;101392.67;1657767;86;21086;-63
2022/04/12 03:41:03;;;;;;;6.53;4.47;;;;;;;10.23;42.62;101384.89;1657843;86;21063;-64
2022/04/12 03:43:29;;;;;;;5.53;5.00;;;;;;;10.20;42.64;101391.44;1657330;86;21074;-63
2022/04/12 03:45:56;;;;;;;5.35;4.28;;;;;;;10.18;42.66;101394.50;1654635;86;21036;-63
2022/04/12 03:48:23;;;;;;;6.45;4.65;;;;;;;10.18;42.67;101391.90;1654766;86;21519;-64
2022/04/12 03:50:50;;;;;;;6.42;4.83;;;;;;;10.15;42.69;101384.98;1655125;86;21106;-64
2022/04/12 03:53:17;;;;;;;7.45;5.47;;;;;;;10.15;42.80;101389.31;1655414;86;21534;-63
2022/04/12 03:55:46;;;;;;;4.97;4.50;;;;;;;10.13;43.05;101397.56;1655619;85;21091;-64
2022/04/12 03:58:19;;;;;;;5.92;4.67;;;;;;;10.10;43.07;101393.68;1657672;86;21088;-65
2022/04/12 04:00:41;;;;;;;5.08;4.40;;;;;;;10.09;43.17;101388.04;1657960;86;21050;-64
2022/04/12 04:03:08;;;;;;;4.85;4.15;;;;;;;10.10;43.18;101392.38;1656136;86;21125;-64
2022/04/12 04:05:35;;;;;;;5.87;4.10;;;;;;;10.10;43.29;101391.08;1655055;86;21039;-63
2022/04/12 04:08:02;;;;;;;5.25;4.37;;;;;;;10.09;43.52;101399.31;1655140;86;21059;-63
2022/04/12 04:10:30;;;;;;;6.65;4.80;;;;;;;10.10;43.54;101400.19;1654935;86;21020;-63
2022/04/12 04:12:58;;;;;;;5.12;4.62;;;;;;;10.11;43.58;101405.82;1646878;86;21039;-64
2022/04/12 04:15:25;;;;;;;6.62;4.47;;;;;;;10.09;43.68;101407.55;1653434;86;21027;-64
2022/04/12 04:17:52;;;;;;;7.45;4.62;;;;;;;10.09;43.77;101406.24;1659124;86;21515;-64
2022/04/12 04:20:19;;;;;;;7.00;4.58;;;;;;;10.08;43.86;101408.41;1657212;86;21051;-64
2022/04/12 04:22:46;;;;;;;5.42;4.33;;;;;;;10.09;43.98;101420.55;1642482;86;21086;-65
2022/04/12 04:25:15;;;;;;;5.25;4.40;;;;;;;10.10;44.17;101417.08;1657477;86;21098;-64
2022/04/12 04:27:43;;;;;;;6.50;4.95;;;;;;;10.11;44.06;101414.92;1657832;86;21078;-64
2022/04/12 04:30:12;;;;;;;5.62;4.70;;;;;;;10.12;44.21;101428.37;1656395;86;21043;-63
2022/04/12 04:32:40;;;;;;;5.90;4.35;;;;;;;10.15;44.14;101423.12;1660469;85;21086;-64
2022/04/12 04:35:09;;;;;;;5.15;4.42;;;;;;;10.18;44.02;101423.11;1664462;85;21541;-64
2022/04/12 04:37:47;;;;;;;5.90;4.42;;;;;;;10.21;43.85;101420.45;1634719;86;21014;-63
2022/04/12 04:40:19;;;;;;;7.58;4.40;;;;;;;10.24;43.79;101413.48;1634740;86;21037;-64
2022/04/12 04:42:47;;;;;;;6.12;4.30;;;;;;;10.27;43.66;101421.70;1646615;86;21027;-64
2022/04/12 04:45:15;;;;;;;6.37;4.78;;;;;;;10.29;43.83;101421.24;1665087;85;21063;-65
2022/04/12 04:47:56;;;;;;;6.05;4.62;;;;;;;10.27;43.80;101426.90;1666733;85;21054;-64
2022/04/12 04:50:25;;;;;;;5.95;4.40;;;;;;;10.27;43.70;101420.39;1577070;91;21030;-65
2022/04/12 04:52:52;;;;;;;5.40;4.70;;;;;;;10.27;43.83;101423.87;1577030;91;21027;-64
2022/04/12 04:55:21;;;;;;;6.03;4.72;;;;;;;10.31;44.06;101431.19;1576826;91;21062;-64
2022/04/12 04:57:48;;;;;;;6.78;5.17;;;;;;;10.33;44.30;101433.34;1577430;91;21154;-64
2022/04/12 05:00:16;;;;;;;5.92;5.03;;;;;;;10.35;44.34;101431.58;1577247;91;21038;-64
2022/04/12 05:02:49;;;;;;;5.75;4.65;;;;;;;10.38;44.21;101441.97;1576501;91;21489;-65
2022/04/12 05:05:17;;;;;;;7.00;5.03;;;;;;;10.41;44.02;101439.33;1577900;91;21109;-64
2022/04/12 05:07:52;;;;;;;6.47;4.80;;;;;;;10.43;44.21;101437.56;1576526;91;21164;-64
2022/04/12 05:10:28;;;;;;;6.10;4.80;;;;;;;10.45;44.29;101452.30;1577489;91;21634;-64
2022/04/12 05:12:57;;;;;;;6.67;4.42;;;;;;;10.47;43.96;101434.05;1577304;91;21087;-64
2022/04/12 05:15:27;;;;;;;7.28;5.28;;;;;;;10.48;44.30;101444.90;1577331;91;21136;-65
2022/04/12 05:17:54;;;;;;;6.75;4.37;;;;;;;10.51;44.20;101446.16;1577317;91;21098;-64
2022/04/12 05:20:24;;;;;;;7.33;4.90;;;;;;;10.53;44.05;101445.73;1577565;91;21142;-63
2022/04/12 05:22:52;;;;;;;6.20;4.78;;;;;;;10.55;44.25;101446.11;1578192;91;21586;-64
2022/04/12 05:25:20;;;;;;;6.22;4.47;;;;;;;10.57;44.18;101444.35;1577186;91;21086;-64
2022/04/12 05:27:48;;;;;;;7.00;5.17;;;;;;;10.62;44.08;101444.31;1578318;91;21097;-64
2022/04/12 05:30:16;;;;;;;5.37;4.37;;;;;;;10.65;44.07;101452.10;1577339;91;21062;-64
2022/04/12 05:32:43;;;;;;;6.53;4.85;;;;;;;10.68;44.07;101449.45;1570310;90;21127;-65
2022/04/12 05:35:11;;;;;;;5.25;4.75;;;;;;;10.70;44.50;101450.29;1583510;90;21514;-64
2022/04/12 05:37:48;;;;;;;6.80;4.78;;;;;;;10.73;44.43;101451.57;1583681;90;21074;-65
2022/04/12 05:40:15;;;;;;;6.28;4.70;;;;;;;10.80;44.21;101459.72;1534009;93;21093;-63
2022/04/12 05:42:42;;;;;;;7.25;4.58;;;;;;;10.84;43.94;101458.80;1538147;93;21633;-64
2022/04/12 05:45:11;;;;;;;5.83;4.53;;;;;;;10.92;43.89;101463.47;1510616;95;21094;-65
2022/04/12 05:47:49;;;;;;;7.25;5.03;;;;;;;11.03;43.44;101460.31;1573204;90;21005;-65
2022/04/12 05:50:15;;;;;;;5.65;4.70;;;;;;;11.20;43.17;101471.39;1582696;90;21521;-64
2022/04/12 05:52:43;;;;;;;5.60;5.05;;;;;;;11.38;42.99;101477.66;1571151;90;21064;-64
2022/04/12 05:55:17;;;;;;;9.08;4.72;;;;;;;11.58;42.19;101481.27;1579798;90;21822;-61
2022/04/12 05:57:59;;;;;;;7.30;4.67;;;;;;;11.84;41.67;101478.33;1580971;90;21556;-65
2022/04/12 06:00:28;;;;;;;5.60;3.50;;;;;;;12.13;41.53;101473.07;1579757;90;21025;-64
2022/04/12 06:02:55;;;;;;;6.37;4.05;;;;;;;12.51;40.81;101482.83;1581909;90;21056;-66
2022/04/12 06:05:26;;;;;;;5.40;4.25;;;;;;;12.84;40.00;101473.05;1578457;90;21104;-64
2022/04/12 06:07:54;;;;;;;4.67;3.87;;;;;;;13.21;39.25;101476.28;1583639;89;21033;-64
2022/04/12 06:10:21;;;;;;;8.95;5.20;;;;;;;13.50;38.71;101472.56;1578990;90;21633;-64
2022/04/12 06:12:49;;;;;;;9.73;4.85;;;;;;;13.68;38.09;101464.33;1572156;90;21092;-64
2022/04/12 06:15:19;;;;;;;6.50;4.15;;;;;;;13.90;37.36;101468.15;1581366;90;21041;-64
2022/04/12 06:17:46;;;;;;;6.95;4.28;;;;;;;14.13;37.33;101461.91;1579036;90;21053;-64
2022/04/12 06:20:15;;;;;;;5.25;3.90;;;;;;;14.39;36.88;101466.50;1580152;90;21029;-64
2022/04/12 06:22:42;;;;;;;6.22;4.37;;;;;;;14.57;36.17;101470.80;1580128;90;21041;-64
2022/04/12 06:25:10;;;;;;;4.60;4.00;;;;;;;14.64;35.33;101474.99;1580252;90;21533;-64
2022/04/12 06:27:40;;;;;;;5.83;3.90;;;;;;;14.59;35.49;101475.55;1580784;90;21065;-64
2022/04/12 06:30:11;;;;;;;6.30;3.90;;;;;;;14.58;36.41;101472.98;1612210;86;21047;-65
2022/04/12 06:32:39;;;;;;;6.67;3.90;;;;;;;14.63;35.57;101473.25;1658545;86;21062;-64
2022/04/12 06:35:09;;;;;;;5.80;3.70;;;;;;;14.68;34.79;101494.95;1657138;86;21134;-65
2022/04/12 06:37:39;;;;;;;4.78;3.85;;;;;;;14.60;35.34;101469.42;1655444;86;21123;-63
2022/04/12 06:40:11;;;;;;;5.25;4.53;;;;;;;14.54;35.43;101485.30;1656762;86;21066;-63
2022/04/12 06:42:38;;;;;;;;;;;;;;;14.51;35.26;101480.13;1659383;86;21066;-65
2022/04/12 06:45:07;;;;;;;6.60;3.87;;;;;;;14.45;35.17;101497.31;1653086;85;20384;-64
2022/04/12 06:47:37;;;;;;;5.78;4.25;;;;;;;14.46;35.73;101495.13;1659688;85;21581;-64
2022/04/12 06:50:05;;;;;;;5.03;3.92;;;;;;;14.53;35.73;101500.59;1594649;89;21072;-64
2022/04/12 06:52:32;;;;;;;4.78;3.98;;;;;;;14.62;35.08;101487.27;1620061;88;21044;-64
2022/04/12 06:54:59;;;;;;;4.05;3.65;;;;;;;14.68;35.21;101495.41;1619628;89;21111;-64
2022/04/12 06:57:31;;;;;;;7.78;4.17;;;;;;;14.73;35.42;101488.73;1619664;89;21009;-63
2022/04/12 06:59:59;;;;;;;5.10;4.00;;;;;;;14.72;36.02;101494.42;1619918;88;21060;-64
2022/04/12 07:02:26;;;;;;;8.50;7.67;;;;;;;14.71;36.29;101483.55;1619980;89;21061;-63
2022/04/12 07:04:53;;;;;;;5.17;4.00;;;;;;;14.77;36.65;101490.38;1619817;88;21057;-64
2022/04/12 07:07:20;;;;;;;4.72;3.62;;;;;;;14.84;35.91;101489.31;1619730;89;21057;-64
2022/04/12 07:09:48;;;;;;;7.00;3.92;;;;;;;14.87;35.92;101483.53;1607256;88;21650;-64
2022/04/12 07:12:15;;;;;;;6.53;3.92;;;;;;;14.85;35.51;101487.95;1619710;89;21053;-64
2022/04/12 07:14:41;;;;;;;4.20;3.37;;;;;;;14.84;35.37;101490.63;1619854;88;21097;-64
2022/04/12 07:17:08;;;;;;;8.40;3.60;;;;;;;14.81;35.26;101489.38;1619741;89;21069;-64
2022/04/12 07:19:36;;;;;;;4.90;3.45;;;;;;;14.85;35.16;101484.47;1619749;89;22447;-64
2022/04/12 07:22:04;;;;;;;5.30;3.72;;;;;;;14.92;34.67;101496.52;1619927;88;21076;-64
2022/04/12 07:24:32;;;;;;;7.40;4.05;;;;;;;14.98;34.83;101493.72;1619930;88;21580;-63
2022/04/12 07:26:59;;;;;;;4.30;3.22;;;;;;;15.08;34.82;101501.72;1619917;88;21002;-65
2022/04/12 07:29:26;;;;;;;4.03;3.33;;;;;;;15.15;34.05;101505.88;1619605;89;21061;-64
2022/04/12 07:31:54;;;;;;;3.40;3.10;;;;;;;15.15;33.37;101501.94;1619563;88;21017;-64
2022/04/12 07:34:21;;;;;;;5.33;3.72;;;;;;;15.10;33.76;101488.13;1626823;88;21544;-64
2022/04/12 07:36:50;;;;;;;5.10;3.75;;;;;;;15.04;34.30;101497.47;1627336;88;21094;-64
2022/04/12 07:39:17;;;;;;;6.58;3.72;;;;;;;14.94;35.25;101491.61;1627362;88;21062;-64
2022/04/12 07:41:45;;;;;;;7.15;3.62;;;;;;;14.83;35.10;101487.58;1627509;88;21070;-64
2022/04/12 07:44:13;;;;;;;4.15;3.45;;;;;;;14.76;35.28;101491.25;1622176;88;21066;-64
2022/04/12 07:46:40;;;;;;;5.95;3.30;;;;;;;14.70;35.42;101497.53;1627667;88;21566;-63
2022/04/12 07:49:08;;;;;;;6.67;3.33;;;;;;;14.65;35.57;101492.41;1627666;88;21026;-64
2022/04/12 07:51:35;;;;;;;3.90;3.50;;;;;;;14.63;35.01;101503.38;1627421;88;21102;-64
2022/04/12 07:54:03;;;;;;;6.50;3.45;;;;;;;14.62;35.58;101512.16;1657768;84;21075;-63
2022/04/12 07:56:34;;;;;;;4.85;3.10;;;;;;;14.61;34.80;101509.11;1643733;87;21049;-64
2022/04/12 07:59:03;;;;;;;5.15;2.90;;;;;;;14.59;34.72;101513.97;1644974;87;21013;-64
2022/04/12 08:01:30;;;;;;;3.25;2.60;;;;;;;14.57;34.98;101516.64;1645004;87;21124;-64
2022/04/12 08:03:57;;;;;;;3.72;2.45;;;;;;;14.56;34.72;101508.38;1641384;87;21061;-63
2022/04/12 08:06:24;;;;;;;5.40;2.75;;;;;;;14.53;35.20;101508.45;1633253;87;21557;-64
2022/04/12 08:08:51;;;;;;;3.47;2.62;;;;;;;14.54;34.65;101507.56;1642440;87;21117;-63
2022/04/12 08:11:18;;;;;;;4.60;2.77;;;;;;;14.59;34.32;101510.04;1643601;87;21064;-64
2022/04/12 08:13:47;;;;;;;4.35;2.72;;;;;;;14.60;33.92;101494.31;1635627;87;21001;-64
2022/04/12 08:16:17;;;;;;;3.33;2.40;;;;;;;14.60;33.87;101507.41;1639495;87;21057;-64
2022/04/12 08:18:46;;;;;;;2.33;2.12;;;;;;;14.62;34.20;101497.75;1641959;87;21053;-64
2022/04/12 08:21:13;;;;;;;6.67;2.40;;;;;;;14.69;33.79;101499.28;1644237;87;21093;-63
2022/04/12 08:23:40;;;;;;;3.58;2.40;;;;;;;14.75;34.40;101505.27;1633275;87;21089;-64
2022/04/12 08:26:08;;;;;;;3.33;1.87;;;;;;;14.77;33.60;101502.16;1645112;87;21588;-63
2022/04/12 08:28:36;;;;;;;3.35;2.08;;;;;;;14.75;32.99;101498.72;1644537;87;21128;-64
2022/04/12 08:31:03;;;;;;;4.05;2.42;;;;;;;14.74;34.12;101493.05;1641665;87;21120;-64
2022/04/12 08:33:30;;;;;;;2.80;2.00;;;;;;;14.75;33.15;101496.97;1647815;85;21163;-63
2022/04/12 08:35:57;;;;;;;3.80;2.10;;;;;;;14.76;33.02;101497.80;1641193;87;21051;-64
2022/04/12 08:38:24;;;;;;;3.25;2.37;;;;;;;14.76;33.39;101497.36;1647834;86;21031;-64
2022/04/12 08:40:54;;;;;;;4.67;2.70;;;;;;;14.77;32.60;101496.48;1664363;85;21031;-62
2022/04/12 08:43:21;;;;;;;3.42;2.20;;;;;;;14.78;31.99;101489.45;1664838;85;21038;-63
2022/04/12 08:45:49;;;;;;;4.25;2.40;;;;;;;14.78;32.43;101503.86;1664807;84;21062;-64
2022/04/12 08:48:16;;;;;;;4.22;2.30;;;;;;;14.79;31.53;101496.42;1665119;85;21066;-63
2022/04/12 08:50:44;;;;;;;4.33;2.90;;;;;;;14.80;31.33;101491.58;1633797;85;21531;-63
2022/04/12 08:53:11;;;;;;;2.98;2.30;;;;;;;14.82;32.50;101502.44;1667568;85;21051;-64
2022/04/12 08:55:40;;;;;;;3.02;2.45;;;;;;;14.86;32.03;101488.83;1667989;85;21091;-63
2022/04/12 08:58:08;;;;;;;2.98;2.08;;;;;;;14.89;32.77;101491.34;1676181;85;21055;-64
2022/04/12 09:00:37;;;;;;;5.00;2.30;;;;;;;14.90;31.13;101493.08;1663708;85;21077;-64
2022/04/12 09:03:05;;;;;;;3.47;2.40;;;;;;;14.90;31.22;101493.08;1666425;85;21039;-64
2022/04/12 09:05:33;;;;;;;4.90;2.75;;;;;;;14.90;31.77;101497.00;1668615;85;21015;-64
2022/04/12 09:08:00;;;;;;;3.55;1.77;;;;;;;14.91;31.86;101498.70;1602398;87;21551;-64
2022/04/12 09:10:36;;;;;;;4.55;2.60;;;;;;;14.92;32.13;101498.66;1664756;85;21082;-64
2022/04/12 09:13:11;;;;;;;4.53;3.62;;;;;;;14.96;32.01;101498.98;1603855;89;21075;-64
2022/04/12 09:15:44;;;;;;;5.03;2.80;;;;;;;15.00;31.54;101490.60;1606656;89;21053;-65
2022/04/12 09:18:11;;;;;;;3.02;2.25;;;;;;;15.03;32.26;101490.05;1606978;89;21106;-63
2022/04/12 09:20:42;;;;;;;3.62;2.67;;;;;;;15.07;31.24;101483.82;1606232;89;21050;-65
2022/04/12 09:23:15;;;;;;;3.62;2.42;;;;;;;15.10;31.07;101486.81;1607051;89;21078;-63
2022/04/12 09:25:55;;;;;;;4.83;2.42;;;;;;;15.11;32.19;101480.66;1604806;89;21054;-65
2022/04/12 09:28:22;;;;;;;2.65;2.30;;;;;;;15.14;32.39;101483.20;1598497;89;21573;-66
2022/04/12 09:30:53;;;;;;;2.77;2.15;;;;;;;15.15;31.51;101482.28;1595676;89;22312;-64
2022/04/12 09:33:38;;;;;;;3.50;2.30;;;;;;;15.18;31.94;101488.76;1605841;89;21042;-63
2022/04/12 09:36:06;;;;;;;4.10;2.30;;;;;;;15.21;31.10;101483.41;1542431;93;21629;-64
2022/04/12 09:38:37;;;;;;;3.60;2.65;;;;;;;15.22;30.88;101489.08;1542880;91;21087;-65
2022/04/12 09:41:19;;;;;;;4.33;2.50;;;;;;;15.21;30.98;101495.20;1542421;93;21146;-66
2022/04/12 09:44:12;;;;;;;4.92;2.35;;;;;;;15.23;31.94;101485.53;1541415;93;21696;-65
2022/04/12 09:46:39;;;;;;;3.30;2.45;;;;;;;15.28;31.54;101487.59;1541225;91;21135;-64
2022/04/12 09:49:07;;;;;;;2.67;2.35;;;;;;;15.31;30.45;101496.69;1541193;91;21808;-65
2022/04/12 09:51:37;;;;;;;3.22;2.00;;;;;;;15.31;30.86;101501.93;1541371;92;21093;-65
2022/04/12 09:54:06;;;;;;;5.37;2.17;;;;;;;15.35;30.93;101490.45;1543219;92;21120;-65
2022/04/12 09:56:34;;;;;;;2.70;2.15;;;;;;;15.39;29.86;101499.94;1537649;93;21569;-64
2022/04/12 09:59:06;;;;;;;4.50;2.20;;;;;;;15.41;30.81;101485.02;1542397;93;21092;-64
2022/04/12 10:01:39;;;;;;;3.87;2.75;;;;;;;15.46;30.11;101489.24;1485562;96;21161;-65
2022/04/12 10:04:05;;;;;;;3.35;2.17;;;;;;;15.50;31.25;101489.16;1463995;96;21140;-65
2022/04/12 10:06:33;;;;;;;3.02;2.52;;;;;;;15.51;30.96;101496.98;1477237;97;21201;-64
2022/04/12 10:09:00;;;;;;;4.65;2.37;;;;;;;15.50;30.92;101500.48;1499459;94;21164;-65
2022/04/12 10:11:29;;;;;;;3.37;1.90;;;;;;;15.48;31.17;101492.28;1544939;92;21136;-64
2022/04/12 10:14:00;;;;;;;2.72;2.47;;;;;;;15.48;31.82;101491.81;1560275;89;21618;-63
2022/04/12 10:16:28;;;;;;;3.10;2.52;;;;;;;15.53;31.27;101488.61;1573003;90;21573;-65
2022/04/12 10:18:57;;;;;;;3.02;2.35;;;;;;;15.56;31.89;101495.05;1562440;90;21054;-64
2022/04/12 10:21:26;;;;;;;3.77;2.80;;;;;;;15.57;31.43;101491.55;1535344;90;21108;-64
2022/04/12 10:23:57;;;;;;;3.40;2.37;;;;;;;15.61;31.31;101510.22;1572802;90;21062;-65
2022/04/12 10:26:25;;;;;;;4.65;2.98;;;;;;;15.67;32.14;101494.29;1573112;90;21084;-65
2022/04/12 10:28:59;;;;;;;3.47;2.33;;;;;;;15.69;30.95;101491.16;1605326;88;21073;-66
2022/04/12 10:31:30;;;;;;;8.35;2.52;;;;;;;15.70;30.32;101499.45;1541856;93;21081;-61
2022/04/12 10:34:11;;;;;;;5.62;2.30;;;;;;;15.72;29.96;101496.33;1498735;94;21136;-62
2022/04/12 10:37:07;;;;;;;4.80;2.12;;;;;;;15.73;30.30;101495.41;1527430;92;21118;-66
2022/04/12 10:39:40;;;;;;;4.28;2.85;;;;;;;15.78;30.99;101503.14;1526613;93;21089;-65
2022/04/12 10:42:11;;;;;;;5.45;2.83;;;;;;;15.85;31.14;101509.45;1448165;99;21676;-65
2022/04/12 10:44:42;;;;;;;3.17;2.30;;;;;;;15.88;31.32;101508.06;1438791;99;21697;-65
2022/04/12 10:47:29;;;;;;;4.72;2.17;;;;;;;15.89;29.93;101508.45;1431418;100;21144;-66
2022/04/12 10:50:01;;;;;;;3.02;2.42;;;;;;;15.87;29.68;101510.70;1421667;100;21117;-66
2022/04/12 10:52:43;;;;;;;2.72;2.20;;;;;;;15.87;30.62;101519.45;1418351;100;21133;-65
2022/04/12 10:55:14;;;;;;;3.35;2.17;;;;;;;15.90;29.39;101517.19;1377685;103;21197;-64
2022/04/12 10:57:41;;;;;;;3.22;2.25;;;;;;;15.96;29.03;101515.68;1397207;102;21168;-65
2022/04/12 11:00:19;;;;;;;3.05;2.22;;;;;;;16.05;29.69;101522.80;1414270;100;21069;-66
2022/04/12 11:03:00;;;;;;;2.62;1.80;;;;;;;16.13;29.26;101509.00;1339844;106;21153;-65
2022/04/12 11:05:44;;;;;;;3.17;2.02;;;;;;;16.19;28.96;101499.61;1326610;108;21170;-66
2022/04/12 11:08:17;;;;;;;;;;;;;;;16.17;29.57;101505.36;1328646;108;21204;-66
2022/04/12 11:10:57;;;;;;;4.00;1.90;;;;;;;16.14;29.24;101516.39;1326845;108;20170;-66
2022/04/12 11:13:31;;;;;;;1.65;1.37;;;;;;;16.11;30.05;101518.69;1326328;108;21170;-65
2022/04/12 11:16:10;;;;;;;3.30;1.87;;;;;;;16.05;29.38;101518.86;1293358;111;21137;-65
2022/04/12 11:18:56;;;;;;;1.57;1.47;;;;;;;15.98;28.73;101521.73;1296604;107;21262;-66
2022/04/12 11:21:29;;;;;;;2.27;1.60;;;;;;;15.96;28.81;101516.55;1334195;107;21164;-65
2022/04/12 11:24:00;;;;;;;3.37;1.80;;;;;;;15.99;29.01;101511.66;1334143;107;21173;-65
2022/04/12 11:26:50;;;;;;;6.03;2.02;;;;;;;16.05;29.27;101518.86;1321090;107;21166;-65
2022/04/12 11:29:22;;;;;;;3.05;2.20;;;;;;;16.09;29.87;101506.04;1334079;107;21129;-64
2022/04/12 11:31:53;;;;;;;3.35;1.70;;;;;;;16.07;30.01;101515.73;1334178;107;21779;-64
2022/04/12 11:34:22;;;;;;;3.60;1.87;;;;;;;16.09;31.39;101532.77;1353150;103;21177;-64
2022/04/12 11:36:55;;;;;;;4.60;1.52;;;;;;;16.18;30.63;101514.94;1391538;103;21165;-64